sensor_id;sensor_type;location;lat;lon;timestamp;temperature;humidity
64209;DHT22;50527;52.414;13.226;2023-05-10T00:00:40;12.40;66.10
64209;DHT22;50527;52.414;13.226;2023-05-10T00:03:06;12.30;66.10
64209;DHT22;50527;52.414;13.226;2023-05-10T00:05:32;12.40;65.90
64209;DHT22;50527;52.414;13.226;2023-05-10T00:07:57;12.30;65.70
64209;DHT22;50527;52.414;13.226;2023-05-10T00:10:23;12.40;66.30
64209;DHT22;50527;52.414;13.226;2023-05-10T00:12:48;12.40;66.00
64209;DHT22;50527;52.414;13.226;2023-05-10T00:15:14;12.40;66.60
64209;DHT22;50527;52.414;13.226;2023-05-10T00:17:40;12.30;66.30
64209;DHT22;50527;52.414;13.226;2023-05-10T00:20:06;12.30;66.70
64209;DHT22;50527;52.414;13.226;2023-05-10T00:22:32;12.20;66.30
64209;DHT22;50527;52.414;13.226;2023-05-10T00:24:58;12.10;66.50
64209;DHT22;50527;52.414;13.226;2023-05-10T00:27:23;12.10;67.20
64209;DHT22;50527;52.414;13.226;2023-05-10T00:29:49;12.10;67.20
64209;DHT22;50527;52.414;13.226;2023-05-10T00:32:14;12.10;67.00
64209;DHT22;50527;52.414;13.226;2023-05-10T00:34:40;12.10;68.10
64209;DHT22;50527;52.414;13.226;2023-05-10T00:37:05;12.00;68.20
64209;DHT22;50527;52.414;13.226;2023-05-10T00:39:31;12.10;67.60
64209;DHT22;50527;52.414;13.226;2023-05-10T00:41:56;12.10;67.90
64209;DHT22;50527;52.414;13.226;2023-05-10T00:44:22;12.00;68.40
64209;DHT22;50527;52.414;13.226;2023-05-10T00:46:48;11.90;69.00
64209;DHT22;50527;52.414;13.226;2023-05-10T00:49:14;12.00;68.60
64209;DHT22;50527;52.414;13.226;2023-05-10T00:51:40;12.00;69.30
64209;DHT22;50527;52.414;13.226;2023-05-10T00:54:08;11.90;68.80
64209;DHT22;50527;52.414;13.226;2023-05-10T00:56:34;11.80;68.70
64209;DHT22;50527;52.414;13.226;2023-05-10T00:59:00;11.80;69.20
64209;DHT22;50527;52.414;13.226;2023-05-10T01:01:25;11.90;69.00
64209;DHT22;50527;52.414;13.226;2023-05-10T01:03:51;11.90;69.10
64209;DHT22;50527;52.414;13.226;2023-05-10T01:06:16;11.90;70.30
64209;DHT22;50527;52.414;13.226;2023-05-10T01:08:42;11.90;69.10
64209;DHT22;50527;52.414;13.226;2023-05-10T01:11:08;11.90;69.40
64209;DHT22;50527;52.414;13.226;2023-05-10T01:13:36;11.90;69.30
64209;DHT22;50527;52.414;13.226;2023-05-10T01:16:02;11.80;70.00
64209;DHT22;50527;52.414;13.226;2023-05-10T01:18:29;11.70;70.20
64209;DHT22;50527;52.414;13.226;2023-05-10T01:21:14;11.60;70.60
64209;DHT22;50527;52.414;13.226;2023-05-10T01:32:14;11.50;71.10
64209;DHT22;50527;52.414;13.226;2023-05-10T01:34:54;11.50;71.30
64209;DHT22;50527;52.414;13.226;2023-05-10T01:37:31;11.50;71.40
64209;DHT22;50527;52.414;13.226;2023-05-10T01:40:07;11.50;71.60
64209;DHT22;50527;52.414;13.226;2023-05-10T01:42:42;11.60;71.30
64209;DHT22;50527;52.414;13.226;2023-05-10T01:45:23;11.50;71.00
64209;DHT22;50527;52.414;13.226;2023-05-10T01:47:58;11.50;71.50
64209;DHT22;50527;52.414;13.226;2023-05-10T01:50:30;11.50;71.10
64209;DHT22;50527;52.414;13.226;2023-05-10T01:52:57;11.50;71.50
64209;DHT22;50527;52.414;13.226;2023-05-10T01:55:27;11.40;71.70
64209;DHT22;50527;52.414;13.226;2023-05-10T01:58:05;11.40;71.80
64209;DHT22;50527;52.414;13.226;2023-05-10T02:00:32;11.30;72.20
64209;DHT22;50527;52.414;13.226;2023-05-10T02:03:00;11.30;72.30
64209;DHT22;50527;52.414;13.226;2023-05-10T02:05:29;11.30;72.60
64209;DHT22;50527;52.414;13.226;2023-05-10T02:07:56;11.20;72.40
64209;DHT22;50527;52.414;13.226;2023-05-10T02:10:22;11.10;72.80
64209;DHT22;50527;52.414;13.226;2023-05-10T02:12:49;11.10;73.00
64209;DHT22;50527;52.414;13.226;2023-05-10T02:15:19;11.10;73.90
64209;DHT22;50527;52.414;13.226;2023-05-10T02:17:46;11.10;73.80
64209;DHT22;50527;52.414;13.226;2023-05-10T02:20:13;11.10;73.80
64209;DHT22;50527;52.414;13.226;2023-05-10T02:22:40;11.00;74.00
64209;DHT22;50527;52.414;13.226;2023-05-10T02:25:06;11.10;74.00
64209;DHT22;50527;52.414;13.226;2023-05-10T02:27:35;11.10;73.50
64209;DHT22;50527;52.414;13.226;2023-05-10T02:30:02;11.10;73.80
64209;DHT22;50527;52.414;13.226;2023-05-10T02:32:28;11.00;74.20
64209;DHT22;50527;52.414;13.226;2023-05-10T02:34:55;11.00;74.50
64209;DHT22;50527;52.414;13.226;2023-05-10T02:37:22;10.90;74.90
64209;DHT22;50527;52.414;13.226;2023-05-10T02:39:50;10.90;74.80
64209;DHT22;50527;52.414;13.226;2023-05-10T02:42:18;10.90;75.00
64209;DHT22;50527;52.414;13.226;2023-05-10T02:44:49;10.90;75.30
64209;DHT22;50527;52.414;13.226;2023-05-10T02:47:15;10.80;75.50
64209;DHT22;50527;52.414;13.226;2023-05-10T02:49:41;10.80;76.00
64209;DHT22;50527;52.414;13.226;2023-05-10T02:52:07;10.80;76.30
64209;DHT22;50527;52.414;13.226;2023-05-10T02:54:41;10.80;76.40
64209;DHT22;50527;52.414;13.226;2023-05-10T02:57:11;10.80;76.40
64209;DHT22;50527;52.414;13.226;2023-05-10T02:59:40;10.80;76.10
64209;DHT22;50527;52.414;13.226;2023-05-10T03:02:05;10.80;76.20
64209;DHT22;50527;52.414;13.226;2023-05-10T03:04:31;10.70;77.00
64209;DHT22;50527;52.414;13.226;2023-05-10T03:06:57;10.70;77.50
64209;DHT22;50527;52.414;13.226;2023-05-10T03:09:22;10.70;77.20
64209;DHT22;50527;52.414;13.226;2023-05-10T03:12:07;10.50;78.30
64209;DHT22;50527;52.414;13.226;2023-05-10T03:19:40;10.50;78.10
64209;DHT22;50527;52.414;13.226;2023-05-10T03:22:10;10.50;78.50
64209;DHT22;50527;52.414;13.226;2023-05-10T03:24:36;10.50;78.40
64209;DHT22;50527;52.414;13.226;2023-05-10T03:27:05;10.50;78.70
64209;DHT22;50527;52.414;13.226;2023-05-10T03:29:31;10.50;78.20
64209;DHT22;50527;52.414;13.226;2023-05-10T03:32:00;10.40;78.80
64209;DHT22;50527;52.414;13.226;2023-05-10T03:34:26;10.30;79.80
64209;DHT22;50527;52.414;13.226;2023-05-10T03:36:52;10.20;80.10
64209;DHT22;50527;52.414;13.226;2023-05-10T03:39:17;10.20;80.90
64209;DHT22;50527;52.414;13.226;2023-05-10T03:41:43;10.20;80.70
64209;DHT22;50527;52.414;13.226;2023-05-10T03:44:08;10.30;80.30
64209;DHT22;50527;52.414;13.226;2023-05-10T03:46:33;10.30;80.50
64209;DHT22;50527;52.414;13.226;2023-05-10T03:48:59;10.40;79.50
64209;DHT22;50527;52.414;13.226;2023-05-10T03:51:24;10.30;79.50
64209;DHT22;50527;52.414;13.226;2023-05-10T03:53:54;10.30;79.80
64209;DHT22;50527;52.414;13.226;2023-05-10T03:56:19;10.40;80.10
64209;DHT22;50527;52.414;13.226;2023-05-10T03:58:46;10.40;80.20
64209;DHT22;50527;52.414;13.226;2023-05-10T04:01:12;10.50;79.30
64209;DHT22;50527;52.414;13.226;2023-05-10T04:03:37;10.40;80.50
64209;DHT22;50527;52.414;13.226;2023-05-10T04:06:03;10.30;80.60
64209;DHT22;50527;52.414;13.226;2023-05-10T04:08:29;10.40;79.70
64209;DHT22;50527;52.414;13.226;2023-05-10T04:10:54;10.30;80.10
64209;DHT22;50527;52.414;13.226;2023-05-10T04:13:20;10.50;79.10
64209;DHT22;50527;52.414;13.226;2023-05-10T04:15:46;10.60;79.30
64209;DHT22;50527;52.414;13.226;2023-05-10T04:18:11;10.60;79.30
64209;DHT22;50527;52.414;13.226;2023-05-10T04:20:37;10.60;79.20
64209;DHT22;50527;52.414;13.226;2023-05-10T04:23:02;10.60;78.30
64209;DHT22;50527;52.414;13.226;2023-05-10T04:25:28;10.70;79.10
64209;DHT22;50527;52.414;13.226;2023-05-10T04:27:53;10.70;77.50
64209;DHT22;50527;52.414;13.226;2023-05-10T04:30:19;10.80;77.50
64209;DHT22;50527;52.414;13.226;2023-05-10T04:32:44;10.80;76.80
64209;DHT22;50527;52.414;13.226;2023-05-10T04:35:10;10.90;77.10
64209;DHT22;50527;52.414;13.226;2023-05-10T04:37:35;11.00;77.00
64209;DHT22;50527;52.414;13.226;2023-05-10T04:40:02;11.00;76.60
64209;DHT22;50527;52.414;13.226;2023-05-10T04:42:28;11.10;76.40
64209;DHT22;50527;52.414;13.226;2023-05-10T04:44:54;11.20;75.70
64209;DHT22;50527;52.414;13.226;2023-05-10T04:47:19;11.30;75.70
64209;DHT22;50527;52.414;13.226;2023-05-10T04:49:45;11.40;75.80
64209;DHT22;50527;52.414;13.226;2023-05-10T04:52:10;11.40;75.20
64209;DHT22;50527;52.414;13.226;2023-05-10T04:54:36;11.50;74.00
64209;DHT22;50527;52.414;13.226;2023-05-10T04:57:02;11.50;74.10
64209;DHT22;50527;52.414;13.226;2023-05-10T04:59:27;11.50;74.50
64209;DHT22;50527;52.414;13.226;2023-05-10T05:01:53;11.60;72.90
64209;DHT22;50527;52.414;13.226;2023-05-10T05:04:18;11.60;73.70
64209;DHT22;50527;52.414;13.226;2023-05-10T05:06:44;11.80;74.10
64209;DHT22;50527;52.414;13.226;2023-05-10T05:09:09;12.00;72.50
64209;DHT22;50527;52.414;13.226;2023-05-10T05:11:35;12.00;72.40
64209;DHT22;50527;52.414;13.226;2023-05-10T05:14:00;12.00;72.30
64209;DHT22;50527;52.414;13.226;2023-05-10T05:16:26;12.10;72.10
64209;DHT22;50527;52.414;13.226;2023-05-10T05:18:51;12.10;71.90
64209;DHT22;50527;52.414;13.226;2023-05-10T05:21:18;12.10;71.00
64209;DHT22;50527;52.414;13.226;2023-05-10T05:23:44;12.10;70.20
64209;DHT22;50527;52.414;13.226;2023-05-10T05:26:10;12.20;69.90
64209;DHT22;50527;52.414;13.226;2023-05-10T05:28:36;12.40;69.90
64209;DHT22;50527;52.414;13.226;2023-05-10T05:31:06;12.40;69.70
64209;DHT22;50527;52.414;13.226;2023-05-10T05:33:33;12.50;68.50
64209;DHT22;50527;52.414;13.226;2023-05-10T05:36:01;12.70;68.90
64209;DHT22;50527;52.414;13.226;2023-05-10T05:38:26;12.70;67.60
64209;DHT22;50527;52.414;13.226;2023-05-10T05:40:52;12.80;68.40
64209;DHT22;50527;52.414;13.226;2023-05-10T05:43:17;12.90;68.60
64209;DHT22;50527;52.414;13.226;2023-05-10T05:45:43;13.10;67.10
64209;DHT22;50527;52.414;13.226;2023-05-10T05:48:08;14.10;63.90
64209;DHT22;50527;52.414;13.226;2023-05-10T05:50:34;14.90;60.70
64209;DHT22;50527;52.414;13.226;2023-05-10T05:52:59;14.60;60.50
64209;DHT22;50527;52.414;13.226;2023-05-10T05:55:25;14.40;62.00
64209;DHT22;50527;52.414;13.226;2023-05-10T05:57:51;14.50;61.30
64209;DHT22;50527;52.414;13.226;2023-05-10T06:00:17;14.30;63.50
64209;DHT22;50527;52.414;13.226;2023-05-10T06:02:42;14.30;61.70
64209;DHT22;50527;52.414;13.226;2023-05-10T06:05:08;14.40;62.00
64209;DHT22;50527;52.414;13.226;2023-05-10T06:07:34;14.60;60.90
64209;DHT22;50527;52.414;13.226;2023-05-10T06:09:59;15.00;59.30
64209;DHT22;50527;52.414;13.226;2023-05-10T06:12:25;14.80;58.50
64209;DHT22;50527;52.414;13.226;2023-05-10T06:14:50;14.70;60.00
64209;DHT22;50527;52.414;13.226;2023-05-10T06:17:16;14.80;59.70
64209;DHT22;50527;52.414;13.226;2023-05-10T06:19:41;14.80;59.40
64209;DHT22;50527;52.414;13.226;2023-05-10T06:22:07;14.70;60.00
64209;DHT22;50527;52.414;13.226;2023-05-10T06:24:32;14.90;59.60
64209;DHT22;50527;52.414;13.226;2023-05-10T06:26:58;15.10;58.70
64209;DHT22;50527;52.414;13.226;2023-05-10T06:29:25;15.30;58.20
64209;DHT22;50527;52.414;13.226;2023-05-10T06:31:50;15.20;57.10
64209;DHT22;50527;52.414;13.226;2023-05-10T06:34:16;15.30;58.20
64209;DHT22;50527;52.414;13.226;2023-05-10T06:36:41;15.40;57.70
64209;DHT22;50527;52.414;13.226;2023-05-10T06:39:07;15.40;56.90
64209;DHT22;50527;52.414;13.226;2023-05-10T06:41:33;16.00;57.20
64209;DHT22;50527;52.414;13.226;2023-05-10T06:43:58;18.30;52.10
64209;DHT22;50527;52.414;13.226;2023-05-10T06:46:24;22.50;45.70
64209;DHT22;50527;52.414;13.226;2023-05-10T06:48:49;26.90;40.10
64209;DHT22;50527;52.414;13.226;2023-05-10T06:51:15;29.40;36.00
64209;DHT22;50527;52.414;13.226;2023-05-10T06:53:40;28.60;35.40
64209;DHT22;50527;52.414;13.226;2023-05-10T06:56:06;26.70;35.60
64209;DHT22;50527;52.414;13.226;2023-05-10T06:58:31;26.10;38.70
64209;DHT22;50527;52.414;13.226;2023-05-10T07:01:04;26.20;36.50
64209;DHT22;50527;52.414;13.226;2023-05-10T07:03:30;24.50;37.80
64209;DHT22;50527;52.414;13.226;2023-05-10T07:06:00;22.90;39.70
64209;DHT22;50527;52.414;13.226;2023-05-10T07:08:28;21.70;41.90
64209;DHT22;50527;52.414;13.226;2023-05-10T07:11:00;20.70;43.80
64209;DHT22;50527;52.414;13.226;2023-05-10T07:13:25;20.00;44.60
64209;DHT22;50527;52.414;13.226;2023-05-10T07:15:51;19.20;45.50
64209;DHT22;50527;52.414;13.226;2023-05-10T07:18:16;18.80;47.10
64209;DHT22;50527;52.414;13.226;2023-05-10T07:20:42;18.70;47.00
64209;DHT22;50527;52.414;13.226;2023-05-10T07:23:07;18.70;48.00
64209;DHT22;50527;52.414;13.226;2023-05-10T07:25:32;18.60;47.60
64209;DHT22;50527;52.414;13.226;2023-05-10T07:27:58;18.50;47.00
64209;DHT22;50527;52.414;13.226;2023-05-10T07:30:23;18.40;47.70
64209;DHT22;50527;52.414;13.226;2023-05-10T07:32:49;18.10;48.50
64209;DHT22;50527;52.414;13.226;2023-05-10T07:35:14;18.10;48.90
64209;DHT22;50527;52.414;13.226;2023-05-10T07:37:40;18.20;50.00
64209;DHT22;50527;52.414;13.226;2023-05-10T07:40:06;18.40;48.60
64209;DHT22;50527;52.414;13.226;2023-05-10T07:42:32;18.50;49.00
64209;DHT22;50527;52.414;13.226;2023-05-10T07:44:57;18.70;47.70
64209;DHT22;50527;52.414;13.226;2023-05-10T07:47:23;19.10;47.70
64209;DHT22;50527;52.414;13.226;2023-05-10T07:49:49;20.70;45.90
64209;DHT22;50527;52.414;13.226;2023-05-10T07:52:14;23.50;42.40
64209;DHT22;50527;52.414;13.226;2023-05-10T07:54:40;26.50;38.90
64209;DHT22;50527;52.414;13.226;2023-05-10T07:57:06;29.20;36.10
64209;DHT22;50527;52.414;13.226;2023-05-10T07:59:31;29.90;35.00
64209;DHT22;50527;52.414;13.226;2023-05-10T08:01:57;29.60;34.10
64209;DHT22;50527;52.414;13.226;2023-05-10T08:04:23;27.20;35.50
64209;DHT22;50527;52.414;13.226;2023-05-10T08:06:48;25.60;37.60
64209;DHT22;50527;52.414;13.226;2023-05-10T08:09:14;25.30;38.40
64209;DHT22;50527;52.414;13.226;2023-05-10T08:11:39;24.50;38.80
64209;DHT22;50527;52.414;13.226;2023-05-10T08:14:05;23.90;39.90
64209;DHT22;50527;52.414;13.226;2023-05-10T08:16:30;23.90;40.30
64209;DHT22;50527;52.414;13.226;2023-05-10T08:18:56;23.80;39.80
64209;DHT22;50527;52.414;13.226;2023-05-10T08:21:22;24.30;40.60
64209;DHT22;50527;52.414;13.226;2023-05-10T08:23:47;24.00;39.80
64209;DHT22;50527;52.414;13.226;2023-05-10T08:26:14;23.70;41.00
64209;DHT22;50527;52.414;13.226;2023-05-10T08:28:39;23.80;41.40
64209;DHT22;50527;52.414;13.226;2023-05-10T08:31:05;24.40;39.70
64209;DHT22;50527;52.414;13.226;2023-05-10T08:33:30;24.60;39.70
64209;DHT22;50527;52.414;13.226;2023-05-10T08:35:56;27.20;38.60
64209;DHT22;50527;52.414;13.226;2023-05-10T08:38:21;26.70;37.40
64209;DHT22;50527;52.414;13.226;2023-05-10T08:40:49;25.60;38.40
64209;DHT22;50527;52.414;13.226;2023-05-10T08:43:16;24.40;39.10
64209;DHT22;50527;52.414;13.226;2023-05-10T08:45:43;23.80;40.10
64209;DHT22;50527;52.414;13.226;2023-05-10T08:48:10;23.50;40.90
64209;DHT22;50527;52.414;13.226;2023-05-10T08:50:37;23.70;40.10
64209;DHT22;50527;52.414;13.226;2023-05-10T08:53:11;23.20;41.40
64209;DHT22;50527;52.414;13.226;2023-05-10T08:55:37;22.40;41.90
64209;DHT22;50527;52.414;13.226;2023-05-10T08:58:04;22.30;43.40
64209;DHT22;50527;52.414;13.226;2023-05-10T09:00:31;22.00;42.70
64209;DHT22;50527;52.414;13.226;2023-05-10T09:02:58;21.80;42.50
64209;DHT22;50527;52.414;13.226;2023-05-10T09:05:23;21.70;43.70
64209;DHT22;50527;52.414;13.226;2023-05-10T09:07:49;21.80;43.60
64209;DHT22;50527;52.414;13.226;2023-05-10T09:10:15;22.00;43.20
64209;DHT22;50527;52.414;13.226;2023-05-10T09:12:41;22.10;43.00
64209;DHT22;50527;52.414;13.226;2023-05-10T09:15:07;22.10;43.50
64209;DHT22;50527;52.414;13.226;2023-05-10T09:17:34;22.20;43.40
64209;DHT22;50527;52.414;13.226;2023-05-10T09:20:02;22.20;43.40
64209;DHT22;50527;52.414;13.226;2023-05-10T09:22:28;22.30;42.90
64209;DHT22;50527;52.414;13.226;2023-05-10T09:25:20;22.30;42.60
64209;DHT22;50527;52.414;13.226;2023-05-10T09:27:46;22.90;42.50
64209;DHT22;50527;52.414;13.226;2023-05-10T09:30:29;23.50;42.10
64209;DHT22;50527;52.414;13.226;2023-05-10T09:32:55;24.10;40.00
64209;DHT22;50527;52.414;13.226;2023-05-10T09:35:26;24.10;40.40
64209;DHT22;50527;52.414;13.226;2023-05-10T09:37:54;24.40;39.80
64209;DHT22;50527;52.414;13.226;2023-05-10T09:40:22;24.90;40.30
64209;DHT22;50527;52.414;13.226;2023-05-10T09:45:23;25.50;39.00
64209;DHT22;50527;52.414;13.226;2023-05-10T09:47:49;25.70;39.20
64209;DHT22;50527;52.414;13.226;2023-05-10T09:50:14;26.00;39.40
64209;DHT22;50527;52.414;13.226;2023-05-10T09:52:57;26.60;38.80
64209;DHT22;50527;52.414;13.226;2023-05-10T09:55:41;26.60;38.40
64209;DHT22;50527;52.414;13.226;2023-05-10T09:58:07;26.70;36.70
64209;DHT22;50527;52.414;13.226;2023-05-10T10:00:53;26.70;38.00
64209;DHT22;50527;52.414;13.226;2023-05-10T10:03:20;26.00;37.40
64209;DHT22;50527;52.414;13.226;2023-05-10T10:05:47;26.40;37.60
64209;DHT22;50527;52.414;13.226;2023-05-10T10:08:14;26.60;36.70
64209;DHT22;50527;52.414;13.226;2023-05-10T10:10:40;26.50;37.40
64209;DHT22;50527;52.414;13.226;2023-05-10T10:13:06;26.60;37.20
64209;DHT22;50527;52.414;13.226;2023-05-10T10:15:33;26.50;37.20
64209;DHT22;50527;52.414;13.226;2023-05-10T10:17:59;26.90;38.30
64209;DHT22;50527;52.414;13.226;2023-05-10T10:20:26;27.30;37.00
64209;DHT22;50527;52.414;13.226;2023-05-10T10:22:52;27.00;37.50
64209;DHT22;50527;52.414;13.226;2023-05-10T10:25:19;26.90;37.20
64209;DHT22;50527;52.414;13.226;2023-05-10T10:28:14;26.20;37.50
64209;DHT22;50527;52.414;13.226;2023-05-10T10:30:43;25.20;38.50
64209;DHT22;50527;52.414;13.226;2023-05-10T10:36:15;24.50;40.40
64209;DHT22;50527;52.414;13.226;2023-05-10T10:41:30;24.10;42.10
64209;DHT22;50527;52.414;13.226;2023-05-10T10:49:26;23.60;42.10
64209;DHT22;50527;52.414;13.226;2023-05-10T10:52:27;23.70;42.80
64209;DHT22;50527;52.414;13.226;2023-05-10T10:57:24;23.90;41.40
64209;DHT22;50527;52.414;13.226;2023-05-10T10:59:51;23.90;40.50
64209;DHT22;50527;52.414;13.226;2023-05-10T11:02:53;23.60;40.70
64209;DHT22;50527;52.414;13.226;2023-05-10T11:05:46;23.60;41.20
64209;DHT22;50527;52.414;13.226;2023-05-10T11:08:18;23.50;41.20
64209;DHT22;50527;52.414;13.226;2023-05-10T11:10:51;23.60;41.20
64209;DHT22;50527;52.414;13.226;2023-05-10T11:13:42;23.60;41.30
64209;DHT22;50527;52.414;13.226;2023-05-10T11:16:12;23.60;41.00
64209;DHT22;50527;52.414;13.226;2023-05-10T11:18:38;23.60;42.00
64209;DHT22;50527;52.414;13.226;2023-05-10T11:21:03;23.70;41.00
64209;DHT22;50527;52.414;13.226;2023-05-10T11:23:31;23.60;41.40
64209;DHT22;50527;52.414;13.226;2023-05-10T11:25:58;23.70;41.00
64209;DHT22;50527;52.414;13.226;2023-05-10T11:28:24;23.70;41.20
64209;DHT22;50527;52.414;13.226;2023-05-10T11:30:51;23.60;40.80
64209;DHT22;50527;52.414;13.226;2023-05-10T11:33:18;23.70;41.40
64209;DHT22;50527;52.414;13.226;2023-05-10T11:35:45;23.70;41.70
64209;DHT22;50527;52.414;13.226;2023-05-10T11:38:11;23.70;40.60
64209;DHT22;50527;52.414;13.226;2023-05-10T11:40:37;23.70;40.70
64209;DHT22;50527;52.414;13.226;2023-05-10T11:43:04;23.60;41.60
64209;DHT22;50527;52.414;13.226;2023-05-10T11:45:34;23.70;41.40
64209;DHT22;50527;52.414;13.226;2023-05-10T11:48:01;23.60;40.50
64209;DHT22;50527;52.414;13.226;2023-05-10T11:50:27;23.50;41.10
64209;DHT22;50527;52.414;13.226;2023-05-10T11:52:53;23.30;40.50
64209;DHT22;50527;52.414;13.226;2023-05-10T11:55:19;23.40;41.40
64209;DHT22;50527;52.414;13.226;2023-05-10T11:57:46;23.60;40.50
64209;DHT22;50527;52.414;13.226;2023-05-10T12:00:12;23.50;39.80
64209;DHT22;50527;52.414;13.226;2023-05-10T12:02:38;23.60;41.10
64209;DHT22;50527;52.414;13.226;2023-05-10T12:05:04;23.60;40.30
64209;DHT22;50527;52.414;13.226;2023-05-10T12:07:31;23.60;41.20
64209;DHT22;50527;52.414;13.226;2023-05-10T12:10:10;23.60;41.30
64209;DHT22;50527;52.414;13.226;2023-05-10T12:12:40;23.90;39.70
64209;DHT22;50527;52.414;13.226;2023-05-10T12:15:11;23.80;38.50
64209;DHT22;50527;52.414;13.226;2023-05-10T12:17:38;23.70;39.80
64209;DHT22;50527;52.414;13.226;2023-05-10T12:20:22;23.70;38.90
64209;DHT22;50527;52.414;13.226;2023-05-10T12:22:56;23.80;39.40
64209;DHT22;50527;52.414;13.226;2023-05-10T12:25:23;23.80;39.20
64209;DHT22;50527;52.414;13.226;2023-05-10T12:27:51;23.80;38.90
64209;DHT22;50527;52.414;13.226;2023-05-10T12:30:22;23.80;39.00
64209;DHT22;50527;52.414;13.226;2023-05-10T12:32:47;24.00;39.20
64209;DHT22;50527;52.414;13.226;2023-05-10T12:35:13;24.10;38.50
64209;DHT22;50527;52.414;13.226;2023-05-10T12:37:38;24.00;38.20
64209;DHT22;50527;52.414;13.226;2023-05-10T12:40:08;24.00;38.90
64209;DHT22;50527;52.414;13.226;2023-05-10T12:42:35;24.10;38.40
64209;DHT22;50527;52.414;13.226;2023-05-10T12:45:01;24.00;38.70
64209;DHT22;50527;52.414;13.226;2023-05-10T12:47:27;24.10;38.00
64209;DHT22;50527;52.414;13.226;2023-05-10T12:49:53;24.00;37.40
64209;DHT22;50527;52.414;13.226;2023-05-10T12:52:18;24.10;38.20
64209;DHT22;50527;52.414;13.226;2023-05-10T12:54:44;24.10;38.80
64209;DHT22;50527;52.414;13.226;2023-05-10T12:57:09;24.20;38.50
64209;DHT22;50527;52.414;13.226;2023-05-10T12:59:35;24.20;39.20
64209;DHT22;50527;52.414;13.226;2023-05-10T13:02:01;24.30;38.30
64209;DHT22;50527;52.414;13.226;2023-05-10T13:04:26;24.10;38.00
64209;DHT22;50527;52.414;13.226;2023-05-10T13:06:52;24.00;37.70
64209;DHT22;50527;52.414;13.226;2023-05-10T13:09:17;23.90;38.70
64209;DHT22;50527;52.414;13.226;2023-05-10T13:11:43;24.00;38.40
64209;DHT22;50527;52.414;13.226;2023-05-10T13:14:08;24.10;37.70
64209;DHT22;50527;52.414;13.226;2023-05-10T13:16:34;24.10;38.10
64209;DHT22;50527;52.414;13.226;2023-05-10T13:18:59;24.10;38.00
64209;DHT22;50527;52.414;13.226;2023-05-10T13:21:26;24.10;38.10
64209;DHT22;50527;52.414;13.226;2023-05-10T13:23:52;24.10;39.80
64209;DHT22;50527;52.414;13.226;2023-05-10T13:26:18;24.20;38.40
64209;DHT22;50527;52.414;13.226;2023-05-10T13:28:43;24.00;37.70
64209;DHT22;50527;52.414;13.226;2023-05-10T13:31:08;23.90;38.00
64209;DHT22;50527;52.414;13.226;2023-05-10T13:33:34;24.00;38.20
64209;DHT22;50527;52.414;13.226;2023-05-10T13:36:00;24.00;38.30
64209;DHT22;50527;52.414;13.226;2023-05-10T13:38:25;23.90;39.00
64209;DHT22;50527;52.414;13.226;2023-05-10T13:40:51;23.80;39.60
64209;DHT22;50527;52.414;13.226;2023-05-10T13:43:18;23.90;40.50
64209;DHT22;50527;52.414;13.226;2023-05-10T13:45:44;23.90;38.70
64209;DHT22;50527;52.414;13.226;2023-05-10T13:48:09;24.00;39.60
64209;DHT22;50527;52.414;13.226;2023-05-10T13:50:35;24.10;38.20
64209;DHT22;50527;52.414;13.226;2023-05-10T13:53:00;24.10;38.40
64209;DHT22;50527;52.414;13.226;2023-05-10T13:55:26;24.20;38.80
64209;DHT22;50527;52.414;13.226;2023-05-10T13:57:51;24.10;39.30
64209;DHT22;50527;52.414;13.226;2023-05-10T14:00:17;23.90;38.90
64209;DHT22;50527;52.414;13.226;2023-05-10T14:02:42;23.70;39.20
64209;DHT22;50527;52.414;13.226;2023-05-10T14:05:08;23.50;38.20
64209;DHT22;50527;52.414;13.226;2023-05-10T14:07:34;23.50;38.90
64209;DHT22;50527;52.414;13.226;2023-05-10T14:10:00;23.50;40.70
64209;DHT22;50527;52.414;13.226;2023-05-10T14:12:25;23.30;38.60
64209;DHT22;50527;52.414;13.226;2023-05-10T14:14:51;23.20;39.10
64209;DHT22;50527;52.414;13.226;2023-05-10T14:17:17;23.00;39.50
64209;DHT22;50527;52.414;13.226;2023-05-10T14:19:43;22.90;39.80
64209;DHT22;50527;52.414;13.226;2023-05-10T14:22:08;22.90;40.00
64209;DHT22;50527;52.414;13.226;2023-05-10T14:24:34;22.90;39.30
64209;DHT22;50527;52.414;13.226;2023-05-10T14:26:59;22.70;39.80
64209;DHT22;50527;52.414;13.226;2023-05-10T14:29:25;22.80;40.40
64209;DHT22;50527;52.414;13.226;2023-05-10T14:31:51;22.80;39.90
64209;DHT22;50527;52.414;13.226;2023-05-10T14:34:16;22.90;39.40
64209;DHT22;50527;52.414;13.226;2023-05-10T14:36:42;22.90;39.60
64209;DHT22;50527;52.414;13.226;2023-05-10T14:39:07;22.90;38.80
64209;DHT22;50527;52.414;13.226;2023-05-10T14:41:35;22.90;40.50
64209;DHT22;50527;52.414;13.226;2023-05-10T14:44:00;23.00;39.50
64209;DHT22;50527;52.414;13.226;2023-05-10T14:46:26;22.90;39.90
64209;DHT22;50527;52.414;13.226;2023-05-10T14:48:52;22.90;40.10
64209;DHT22;50527;52.414;13.226;2023-05-10T14:51:18;22.90;40.30
64209;DHT22;50527;52.414;13.226;2023-05-10T14:53:47;22.90;40.90
64209;DHT22;50527;52.414;13.226;2023-05-10T14:56:13;23.00;40.90
64209;DHT22;50527;52.414;13.226;2023-05-10T14:58:38;23.00;40.70
64209;DHT22;50527;52.414;13.226;2023-05-10T15:01:04;23.10;41.00
64209;DHT22;50527;52.414;13.226;2023-05-10T15:03:29;23.00;41.20
64209;DHT22;50527;52.414;13.226;2023-05-10T15:05:55;23.10;41.40
64209;DHT22;50527;52.414;13.226;2023-05-10T15:08:22;23.00;41.30
64209;DHT22;50527;52.414;13.226;2023-05-10T15:10:49;22.90;41.40
64209;DHT22;50527;52.414;13.226;2023-05-10T15:13:15;22.90;41.00
64209;DHT22;50527;52.414;13.226;2023-05-10T15:15:40;22.80;42.20
64209;DHT22;50527;52.414;13.226;2023-05-10T15:18:06;22.70;41.60
64209;DHT22;50527;52.414;13.226;2023-05-10T15:20:32;22.70;41.40
64209;DHT22;50527;52.414;13.226;2023-05-10T15:22:57;22.70;42.30
64209;DHT22;50527;52.414;13.226;2023-05-10T15:25:22;22.70;41.50
64209;DHT22;50527;52.414;13.226;2023-05-10T15:27:49;22.60;41.30
64209;DHT22;50527;52.414;13.226;2023-05-10T15:30:14;22.40;42.00
64209;DHT22;50527;52.414;13.226;2023-05-10T15:32:40;22.30;42.90
64209;DHT22;50527;52.414;13.226;2023-05-10T15:35:07;22.20;43.40
64209;DHT22;50527;52.414;13.226;2023-05-10T15:37:33;22.10;43.50
64209;DHT22;50527;52.414;13.226;2023-05-10T15:39:58;22.10;44.20
64209;DHT22;50527;52.414;13.226;2023-05-10T15:42:29;22.10;43.70
64209;DHT22;50527;52.414;13.226;2023-05-10T15:44:55;22.10;45.60